createdAt,value
2016-05-09T00:00:55.293Z,0
2016-05-09T00:01:55.484Z,0
2016-05-09T00:02:55.347Z,0
2016-05-09T00:03:55.381Z,0
2016-05-09T00:04:55.555Z,0
2016-05-09T00:05:55.417Z,0
2016-05-09T00:06:55.623Z,0
2016-05-09T00:07:55.329Z,0
2016-05-09T00:08:55.660Z,0
2016-05-09T00:09:55.678Z,0
2016-05-09T00:10:55.712Z,0
2016-05-09T00:11:55.730Z,0
2016-05-09T00:12:55.451Z,0
2016-05-09T00:13:55.642Z,0
2016-05-09T00:14:55.817Z,0
2016-05-09T00:15:55.678Z,0
2016-05-09T00:16:55.869Z,0
2016-05-09T00:17:55.730Z,0
2016-05-09T00:18:55.905Z,0
2016-05-09T00:19:55.814Z,0
2016-05-09T00:20:55.973Z,0
2016-05-09T00:21:55.851Z,0
2016-05-09T00:22:56.010Z,0
2016-05-09T00:23:55.888Z,0
2016-05-09T00:24:56.077Z,0
2016-05-09T00:25:55.783Z,0
2016-05-09T00:26:56.129Z,0
2016-05-09T00:27:56.164Z,0
2016-05-09T00:28:56.182Z,0
2016-05-09T00:29:56.216Z,0
2016-05-09T00:30:56.235Z,0
2016-05-09T00:31:56.252Z,0
2016-05-09T00:32:56.271Z,0
2016-05-09T00:33:56.305Z,0
2016-05-09T00:34:56.182Z,0
2016-05-09T00:35:56.373Z,0
2016-05-09T00:36:56.391Z,0
2016-05-09T00:37:56.409Z,0
2016-05-09T00:38:56.443Z,0
2016-05-09T00:39:56.462Z,0
2016-05-09T00:40:56.496Z,0
2016-05-09T00:41:56.514Z,0
2016-05-09T00:42:56.376Z,0
2016-05-09T00:43:56.629Z,0
2016-05-09T00:44:56.585Z,0
2016-05-09T00:45:56.618Z,0
2016-05-09T00:46:56.637Z,0
2016-05-09T00:47:56.499Z,0
2016-05-09T00:48:56.689Z,0
2016-05-09T00:49:56.394Z,0
2016-05-09T00:50:56.742Z,0
2016-05-09T00:51:56.760Z,0
2016-05-09T00:52:56.638Z,0
2016-05-09T00:53:56.811Z,0
2016-05-09T00:54:56.689Z,0
2016-05-09T00:55:56.864Z,0
2016-05-09T00:56:56.585Z,0
2016-05-09T00:57:56.916Z,0
2016-05-09T00:58:58.450Z,0
2016-05-09T00:59:56.828Z,0
2016-05-09T01:00:57.002Z,0
2016-05-09T01:01:57.021Z,0
2016-05-09T01:02:57.040Z,0
2016-05-09T01:03:57.088Z,0
2016-05-09T01:04:57.123Z,0
2016-05-09T01:05:56.969Z,0
2016-05-09T01:06:57.143Z,0
2016-05-09T01:07:57.178Z,0
2016-05-09T01:08:57.039Z,0
2016-05-09T01:09:57.230Z,0
2016-05-09T01:10:57.249Z,0
2016-05-09T01:11:57.267Z,0
2016-05-09T01:12:57.144Z,0
2016-05-09T01:13:57.740Z,0
2016-05-09T01:14:57.211Z,0
2016-05-09T01:15:57.371Z,0
2016-05-09T01:16:57.093Z,0
2016-05-09T01:17:57.423Z,0
2016-05-09T01:18:57.458Z,0
2016-05-09T01:19:57.475Z,0
2016-05-09T01:20:57.369Z,0
2016-05-09T01:21:57.371Z,0
2016-05-09T01:22:57.406Z,0
2016-05-09T01:23:57.580Z,0
2016-05-09T01:24:57.442Z,0
2016-05-09T01:25:57.319Z,0
2016-05-09T01:26:57.650Z,0
2016-05-09T01:27:57.528Z,0
2016-05-09T01:28:58.281Z,0
2016-05-09T01:29:57.580Z,0
2016-05-09T01:30:57.755Z,0
2016-05-09T01:31:57.773Z,0
2016-05-09T01:32:57.651Z,0
2016-05-09T01:33:57.669Z,0
2016-05-09T01:34:57.860Z,0
2016-05-09T01:35:57.878Z,0
2016-05-09T01:36:57.912Z,0
2016-05-09T01:37:57.929Z,0
2016-05-09T01:38:57.793Z,0
2016-05-09T01:39:57.999Z,0
2016-05-09T01:40:58.001Z,0
2016-05-09T01:41:58.035Z,0
2016-05-09T01:42:57.897Z,0
2016-05-09T01:43:58.758Z,0
2016-05-09T01:44:57.965Z,0
2016-05-09T01:45:57.967Z,0
2016-05-09T01:46:58.158Z,0
2016-05-09T01:47:58.020Z,0
2016-05-09T01:48:58.194Z,0
2016-05-09T01:49:58.087Z,0
2016-05-09T01:50:58.261Z,0
2016-05-09T01:51:58.281Z,0
2016-05-09T01:52:58.299Z,0
2016-05-09T01:53:58.348Z,0
2016-05-09T01:54:58.210Z,0
2016-05-09T01:55:58.072Z,0
2016-05-09T01:56:58.403Z,0
2016-05-09T01:57:58.438Z,0
2016-05-09T01:58:58.861Z,0
2016-05-09T01:59:58.489Z,0
2016-05-09T02:00:58.523Z,0
2016-05-09T02:01:58.369Z,0
2016-05-09T02:02:58.560Z,0
2016-05-09T02:03:58.438Z,0
2016-05-09T02:04:58.441Z,0
2016-05-09T02:05:58.646Z,0
2016-05-09T02:06:58.648Z,0
2016-05-09T02:07:58.682Z,0
2016-05-09T02:08:58.733Z,0
2016-05-09T02:09:58.735Z,0
2016-05-09T02:10:58.769Z,0
2016-05-09T02:11:58.787Z,0
2016-05-09T02:12:58.821Z,0
2016-05-09T02:13:59.605Z,0
2016-05-09T02:14:58.702Z,0
2016-05-09T02:15:58.876Z,0
2016-05-09T02:16:58.598Z,0
2016-05-09T02:17:58.944Z,0
2016-05-09T02:18:58.947Z,0
2016-05-09T02:19:58.980Z,0
2016-05-09T02:20:58.858Z,0
2016-05-09T02:21:59.017Z,0
2016-05-09T02:22:59.067Z,0
2016-05-09T02:23:59.076Z,0
2016-05-09T02:24:59.094Z,0
2016-05-09T02:25:58.971Z,0
2016-05-09T02:26:59.163Z,0
2016-05-09T02:27:58.869Z,0
2016-05-09T02:28:59.043Z,0
2016-05-09T02:29:59.232Z,0
2016-05-09T02:30:59.251Z,0
2016-05-09T02:31:59.285Z,0
2016-05-09T02:32:59.304Z,0
2016-05-09T02:33:59.338Z,0
2016-05-09T02:34:59.200Z,0
2016-05-09T02:35:59.374Z,0
2016-05-09T02:36:59.251Z,0
2016-05-09T02:37:59.114Z,0
2016-05-09T02:38:59.289Z,0
2016-05-09T02:39:59.307Z,0
2016-05-09T02:40:59.497Z,0
2016-05-09T02:41:59.531Z,0
2016-05-09T02:42:59.565Z,0
2016-05-09T02:44:00.161Z,0
2016-05-09T02:44:59.445Z,0
2016-05-09T02:45:59.464Z,0
2016-05-09T02:46:59.653Z,0
2016-05-09T02:47:59.516Z,0
2016-05-09T02:48:59.691Z,0
2016-05-09T02:49:59.772Z,0
2016-05-09T02:50:59.758Z,0
2016-05-09T02:51:59.621Z,0
2016-05-09T02:52:59.638Z,0
2016-05-09T02:53:59.813Z,0
2016-05-09T02:54:59.690Z,0
2016-05-09T02:55:59.866Z,0
2016-05-09T02:56:59.899Z,0
2016-05-09T02:57:59.762Z,0
2016-05-09T02:59:00.404Z,0
2016-05-09T02:59:59.814Z,0
2016-05-09T03:00:59.988Z,0
2016-05-09T03:01:59.882Z,0
2016-05-09T03:03:00.040Z,0
2016-05-09T03:04:00.059Z,0
2016-05-09T03:05:00.092Z,0
2016-05-09T03:05:59.954Z,0
2016-05-09T03:07:00.129Z,0
2016-05-09T03:08:00.179Z,4
2016-05-09T03:09:00.025Z,4
2016-05-09T03:10:00.060Z,0
2016-05-09T03:11:00.234Z,0
2016-05-09T03:12:00.252Z,4
2016-05-09T03:13:00.286Z,4
2016-05-09T03:14:00.320Z,0
2016-05-09T03:15:00.183Z,4
2016-05-09T03:16:00.356Z,4
2016-05-09T03:17:00.219Z,4
2016-05-09T03:18:00.409Z,4
2016-05-09T03:19:00.443Z,8
2016-05-09T03:20:00.289Z,8
2016-05-09T03:21:00.480Z,8
2016-05-09T03:22:00.498Z,8
2016-05-09T03:23:00.532Z,12
2016-05-09T03:24:00.410Z,12
2016-05-09T03:25:00.568Z,12
2016-05-09T03:26:00.602Z,12
2016-05-09T03:27:00.465Z,16
2016-05-09T03:28:00.483Z,16
2016-05-09T03:29:01.471Z,16
2016-05-09T03:30:00.551Z,20
2016-05-09T03:31:00.569Z,24
2016-05-09T03:32:00.743Z,24
2016-05-09T03:33:00.637Z,28
2016-05-09T03:34:00.811Z,28
2016-05-09T03:35:00.815Z,28
2016-05-09T03:36:00.848Z,32
2016-05-09T03:37:00.710Z,32
2016-05-09T03:38:00.915Z,36
2016-05-09T03:39:00.919Z,40
2016-05-09T03:40:00.937Z,40
2016-05-09T03:41:00.971Z,44
2016-05-09T03:42:00.989Z,44
2016-05-09T03:43:01.023Z,52
2016-05-09T03:44:02.166Z,52
2016-05-09T03:45:01.060Z,56
2016-05-09T03:46:01.094Z,56
2016-05-09T03:47:00.956Z,60
2016-05-09T03:48:01.146Z,64
2016-05-09T03:49:01.164Z,64
2016-05-09T03:50:01.183Z,68
2016-05-09T03:51:03.513Z,72
2016-05-09T03:52:00.938Z,72
2016-05-09T03:53:01.097Z,76
2016-05-09T03:54:01.130Z,80
2016-05-09T03:55:01.305Z,80
2016-05-09T03:56:01.324Z,84
2016-05-09T03:57:01.186Z,88
2016-05-09T03:58:01.360Z,92
2016-05-09T03:59:01.801Z,92
2016-05-09T04:00:01.428Z,92
2016-05-09T04:01:00.978Z,100
2016-05-09T04:02:01.480Z,100
2016-05-09T04:03:01.343Z,100
2016-05-09T04:04:01.360Z,108
2016-05-09T04:05:01.551Z,108
2016-05-09T04:06:01.100Z,108
2016-05-09T04:07:01.448Z,116
2016-05-09T04:08:01.621Z,116
2016-05-09T04:09:01.640Z,116
2016-05-09T04:10:01.658Z,120
2016-05-09T04:11:01.676Z,120
2016-05-09T04:12:01.553Z,128
2016-05-09T04:13:01.589Z,128
2016-05-09T04:14:01.795Z,132
2016-05-09T04:15:01.781Z,132
2016-05-09T04:16:01.642Z,132
2016-05-09T04:17:01.833Z,136
2016-05-09T04:18:01.539Z,136
2016-05-09T04:19:01.870Z,140
2016-05-09T04:20:01.748Z,140
2016-05-09T04:21:01.938Z,144
2016-05-09T04:22:01.955Z,144
2016-05-09T04:23:01.818Z,148
2016-05-09T04:24:02.008Z,152
2016-05-09T04:25:01.871Z,156
2016-05-09T04:26:02.045Z,152
2016-05-09T04:27:01.907Z,156
2016-05-09T04:28:02.097Z,156
2016-05-09T04:29:02.600Z,160
2016-05-09T04:30:02.134Z,160
2016-05-09T04:31:02.168Z,164
2016-05-09T04:32:02.030Z,164
2016-05-09T04:33:02.220Z,168
2016-05-09T04:34:02.082Z,168
2016-05-09T04:35:02.257Z,172
2016-05-09T04:36:02.290Z,172
2016-05-09T04:37:02.153Z,176
2016-05-09T04:38:02.187Z,172
2016-05-09T04:39:02.346Z,176
2016-05-09T04:40:02.223Z,176
2016-05-09T04:41:02.242Z,180
2016-05-09T04:42:02.431Z,180
2016-05-09T04:43:02.450Z,184
2016-05-09T04:44:02.734Z,184
2016-05-09T04:45:02.346Z,184
2016-05-09T04:46:02.521Z,188
2016-05-09T04:47:02.539Z,192
2016-05-09T04:48:02.572Z,192
2016-05-09T04:49:02.435Z,196
2016-05-09T04:50:02.626Z,192
2016-05-09T04:51:02.486Z,196
2016-05-09T04:52:02.506Z,196
2016-05-09T04:53:02.539Z,200
2016-05-09T04:54:02.699Z,200
2016-05-09T04:55:02.747Z,200
2016-05-09T04:56:02.767Z,204
2016-05-09T04:57:02.785Z,204
2016-05-09T04:58:02.803Z,208
2016-05-09T04:59:02.758Z,204
2016-05-09T05:00:02.871Z,208
2016-05-09T05:01:02.873Z,208
2016-05-09T05:02:02.908Z,212
2016-05-09T05:03:02.926Z,208
2016-05-09T05:04:02.788Z,208
2016-05-09T05:05:02.978Z,208
2016-05-09T05:06:03.012Z,212
2016-05-09T05:07:03.015Z,212
2016-05-09T05:08:03.049Z,212
2016-05-09T05:09:02.910Z,216
2016-05-09T05:10:03.101Z,212
2016-05-09T05:11:03.120Z,216
2016-05-09T05:12:03.137Z,220
2016-05-09T05:13:03.171Z,220
2016-05-09T05:14:04.096Z,220
2016-05-09T05:15:03.067Z,224
2016-05-09T05:16:03.242Z,224
2016-05-09T05:17:03.260Z,224
2016-05-09T05:18:03.279Z,224
2016-05-09T05:19:03.312Z,224
2016-05-09T05:20:03.331Z,224
2016-05-09T05:21:03.349Z,228
2016-05-09T05:22:03.383Z,228
2016-05-09T05:23:03.416Z,228
2016-05-09T05:24:03.420Z,232
2016-05-09T05:25:03.454Z,228
2016-05-09T05:26:03.331Z,232
2016-05-09T05:27:03.505Z,236
2016-05-09T05:28:03.368Z,232
2016-05-09T05:29:03.558Z,236
2016-05-09T05:30:03.577Z,236
2016-05-09T05:31:03.424Z,236
2016-05-09T05:32:03.613Z,236
2016-05-09T05:33:03.646Z,236
2016-05-09T05:34:03.509Z,240
2016-05-09T05:35:03.684Z,236
2016-05-09T05:36:03.702Z,236
2016-05-09T05:37:03.580Z,240
2016-05-09T05:38:03.770Z,240
2016-05-09T05:39:03.616Z,244
2016-05-09T05:40:03.665Z,244
2016-05-09T05:41:03.668Z,240
2016-05-09T05:42:03.703Z,244
2016-05-09T05:43:03.877Z,244
2016-05-09T05:44:04.473Z,244
2016-05-09T05:45:03.929Z,248
2016-05-09T05:46:03.792Z,248
2016-05-09T05:47:03.982Z,248
2016-05-09T05:48:03.844Z,248
2016-05-09T05:49:03.737Z,248
2016-05-09T05:50:04.052Z,244
2016-05-09T05:51:03.914Z,248
2016-05-09T05:52:04.088Z,248
2016-05-09T05:53:03.966Z,248
2016-05-09T05:54:04.126Z,252
2016-05-09T05:55:04.175Z,252
2016-05-09T05:56:04.178Z,252
2016-05-09T05:57:04.196Z,252
2016-05-09T05:58:04.230Z,252
2016-05-09T05:59:04.810Z,252
2016-05-09T06:00:04.282Z,256
2016-05-09T06:01:04.343Z,256
2016-05-09T06:02:04.265Z,256
2016-05-09T06:03:04.327Z,256
2016-05-09T06:04:04.390Z,256
2016-05-09T06:05:04.312Z,260
2016-05-09T06:06:04.673Z,260
2016-05-09T06:07:04.708Z,260
2016-05-09T06:08:04.741Z,260
2016-05-09T06:09:04.775Z,260
2016-05-09T06:10:04.826Z,264
2016-05-09T06:11:04.849Z,260
2016-05-09T06:12:04.873Z,260
2016-05-09T06:13:04.741Z,264
2016-05-09T06:14:04.786Z,264
2016-05-09T06:15:04.794Z,264
2016-05-09T06:16:05.002Z,268
2016-05-09T06:17:04.850Z,264
2016-05-09T06:18:05.043Z,264
2016-05-09T06:19:05.079Z,264
2016-05-09T06:20:05.083Z,268
2016-05-09T06:21:05.117Z,268
2016-05-09T06:22:05.137Z,264
2016-05-09T06:23:05.187Z,268
2016-05-09T06:24:05.221Z,272
2016-05-09T06:25:05.209Z,268
2016-05-09T06:26:04.931Z,268
2016-05-09T06:27:05.278Z,268
2016-05-09T06:28:05.312Z,268
2016-05-09T06:29:05.173Z,272
2016-05-09T06:30:05.348Z,272
2016-05-09T06:31:05.367Z,272
2016-05-09T06:32:05.385Z,272
2016-05-09T06:33:05.402Z,272
2016-05-09T06:34:05.421Z,272
2016-05-09T06:35:05.299Z,276
2016-05-09T06:36:05.474Z,276
2016-05-09T06:37:05.352Z,276
2016-05-09T06:38:05.369Z,276
2016-05-09T06:39:05.388Z,276
2016-05-09T06:40:05.578Z,276
2016-05-09T06:41:05.455Z,280
2016-05-09T06:42:06.677Z,276
2016-05-09T06:43:06.290Z,280
2016-05-09T06:44:05.870Z,280
2016-05-09T06:45:05.686Z,280
2016-05-09T06:46:05.407Z,284
2016-05-09T06:47:05.754Z,280
2016-05-09T06:48:05.615Z,284
2016-05-09T06:49:05.790Z,284
2016-05-09T06:50:05.824Z,284
2016-05-09T06:51:05.842Z,288
2016-05-09T06:52:05.704Z,288
2016-05-09T06:53:05.737Z,288
2016-05-09T06:54:05.756Z,288
2016-05-09T06:55:05.775Z,292
2016-05-09T06:56:05.809Z,292
2016-05-09T06:57:05.984Z,292
2016-05-09T06:58:06.017Z,292
2016-05-09T06:59:07.239Z,292
2016-05-09T07:00:06.054Z,292
2016-05-09T07:01:06.088Z,296
2016-05-09T07:02:06.106Z,296
2016-05-09T07:03:06.139Z,296
2016-05-09T07:04:06.158Z,296
2016-05-09T07:05:06.192Z,300
2016-05-09T07:06:06.194Z,300
2016-05-09T07:07:06.230Z,304
2016-05-09T07:08:06.107Z,296
2016-05-09T07:09:06.125Z,296
2016-05-09T07:10:06.315Z,300
2016-05-09T07:11:06.333Z,300
2016-05-09T07:12:06.352Z,300
2016-05-09T07:13:06.371Z,300
2016-05-09T07:14:06.217Z,304
2016-05-09T07:15:06.266Z,304
2016-05-09T07:16:06.285Z,300
2016-05-09T07:17:06.474Z,304
2016-05-09T07:18:06.509Z,304
2016-05-09T07:19:06.527Z,300
2016-05-09T07:20:06.560Z,300
2016-05-09T07:21:06.563Z,304
2016-05-09T07:22:06.598Z,304
2016-05-09T07:23:06.475Z,308
2016-05-09T07:24:06.650Z,308
2016-05-09T07:25:06.684Z,312
2016-05-09T07:26:06.702Z,312
2016-05-09T07:27:06.564Z,312
2016-05-09T07:28:06.598Z,312
2016-05-09T07:29:07.289Z,312
2016-05-09T07:30:06.651Z,312
2016-05-09T07:31:06.840Z,312
2016-05-09T07:32:06.842Z,316
2016-05-09T07:33:06.878Z,316
2016-05-09T07:34:06.895Z,320
2016-05-09T07:35:06.945Z,316
2016-05-09T07:36:06.979Z,320
2016-05-09T07:37:06.981Z,320
2016-05-09T07:38:07.000Z,324
2016-05-09T07:39:06.878Z,328
2016-05-09T07:40:06.896Z,332
2016-05-09T07:41:07.086Z,332
2016-05-09T07:42:07.120Z,336
2016-05-09T07:43:07.138Z,344
2016-05-09T07:44:07.297Z,344
2016-05-09T07:45:07.191Z,348
2016-05-09T07:46:07.052Z,352
2016-05-09T07:47:07.243Z,352
2016-05-09T07:48:07.261Z,356
2016-05-09T07:49:07.123Z,360
2016-05-09T07:50:07.314Z,364
2016-05-09T07:51:07.399Z,368
2016-05-09T07:52:07.355Z,376
2016-05-09T07:53:07.405Z,376
2016-05-09T07:54:07.095Z,380
2016-05-09T07:55:07.437Z,388
2016-05-09T07:56:07.469Z,396
2016-05-09T07:57:07.331Z,400
2016-05-09T07:58:07.521Z,400
2016-05-09T07:59:08.650Z,400
2016-05-09T08:00:07.574Z,408
2016-05-09T08:01:07.435Z,408
2016-05-09T08:02:07.626Z,416
2016-05-09T08:03:07.644Z,420
2016-05-09T08:04:07.678Z,416
2016-05-09T08:05:18.946Z,428
2016-05-09T08:06:17.871Z,440
2016-05-09T08:07:14.264Z,432
2016-05-09T08:08:26.048Z,444
2016-05-09T08:09:28.285Z,456
2016-05-09T08:10:14.945Z,452
2016-05-09T08:11:07.869Z,448
2016-05-09T08:12:21.965Z,464
2016-05-09T08:13:07.765Z,464
2016-05-09T08:14:08.126Z,472
2016-05-09T08:15:07.817Z,472
2016-05-09T08:16:07.992Z,476
2016-05-09T08:17:07.854Z,480
2016-05-09T08:18:08.076Z,480
2016-05-09T08:19:08.078Z,484
2016-05-09T08:20:08.111Z,492
2016-05-09T08:21:08.131Z,500
2016-05-09T08:22:08.164Z,516
2016-05-09T08:23:08.182Z,508
2016-05-09T08:24:08.061Z,508
2016-05-09T08:25:08.251Z,516
2016-05-09T08:26:08.269Z,524
2016-05-09T08:27:08.131Z,516
2016-05-09T08:28:07.852Z,536
2016-05-09T08:29:08.527Z,544
2016-05-09T08:30:08.374Z,548
2016-05-09T08:31:08.407Z,556
2016-05-09T08:32:08.425Z,560
2016-05-09T08:33:08.460Z,568
2016-05-09T08:34:08.321Z,568
2016-05-09T08:35:08.496Z,564
2016-05-09T08:36:08.530Z,576
2016-05-09T08:37:08.564Z,588
2016-05-09T08:38:08.598Z,584
2016-05-09T08:39:08.615Z,588
2016-05-09T08:40:08.650Z,596
2016-05-09T08:41:08.669Z,616
2016-05-09T08:42:08.702Z,620
2016-05-09T08:43:08.721Z,624
2016-05-09T08:44:09.207Z,628
2016-05-09T08:45:08.632Z,640
2016-05-09T08:46:08.823Z,652
2016-05-09T08:47:08.528Z,656
2016-05-09T08:48:08.718Z,648
2016-05-09T08:49:08.784Z,664
2016-05-09T08:50:08.927Z,672
2016-05-09T08:51:08.633Z,668
2016-05-09T08:52:08.979Z,680
2016-05-09T08:53:09.029Z,688
2016-05-09T08:54:09.031Z,704
2016-05-09T08:55:08.909Z,684
2016-05-09T08:56:09.084Z,688
2016-05-09T08:57:09.117Z,708
2016-05-09T08:58:09.152Z,716
2016-05-09T08:59:09.030Z,720
2016-05-09T09:00:09.219Z,744
2016-05-09T09:01:09.238Z,736
2016-05-09T09:02:09.256Z,748
2016-05-09T09:03:09.290Z,748
2016-05-09T09:04:09.324Z,760
2016-05-09T09:05:09.030Z,764
2016-05-09T09:06:09.376Z,788
2016-05-09T09:07:09.394Z,804
2016-05-09T09:08:09.443Z,804
2016-05-09T09:09:09.307Z,788
2016-05-09T09:10:09.324Z,796
2016-05-09T09:11:09.529Z,808
2016-05-09T09:12:09.548Z,808
2016-05-09T09:13:09.568Z,820
2016-05-09T09:14:09.617Z,824
2016-05-09T09:15:09.635Z,828
2016-05-09T09:16:09.669Z,832
2016-05-09T09:17:09.531Z,840
2016-05-09T09:18:09.409Z,840
2016-05-09T09:19:09.771Z,836
2016-05-09T09:20:09.773Z,844
2016-05-09T09:21:09.682Z,848
2016-05-09T09:22:09.841Z,860
2016-05-09T09:23:09.719Z,872
2016-05-09T09:24:09.894Z,872
2016-05-09T09:25:09.928Z,884
2016-05-09T09:26:09.961Z,896
2016-05-09T09:27:09.839Z,908
2016-05-09T09:28:09.873Z,892
2016-05-09T09:29:11.219Z,896
2016-05-09T09:30:10.081Z,908
2016-05-09T09:31:10.115Z,924
2016-05-09T09:32:10.150Z,928
2016-05-09T09:33:10.183Z,944
2016-05-09T09:34:10.202Z,956
2016-05-09T09:35:10.064Z,972
2016-05-09T09:36:10.269Z,960
2016-05-09T09:37:10.288Z,960
2016-05-09T09:38:10.322Z,964
2016-05-09T09:39:10.340Z,968
2016-05-09T09:40:10.374Z,992
2016-05-09T09:41:10.408Z,980
2016-05-09T09:42:10.426Z,988
2016-05-09T09:43:10.460Z,1008
2016-05-09T09:44:10.978Z,1016
2016-05-09T09:45:10.576Z,1024
2016-05-09T09:46:10.718Z,1036
2016-05-09T09:47:10.423Z,1060
2016-05-09T09:48:10.646Z,1060
2016-05-09T09:49:10.679Z,1084
2016-05-09T09:50:10.682Z,1088
2016-05-09T09:51:10.544Z,1092
2016-05-09T09:52:10.734Z,1084
2016-05-09T09:53:10.768Z,1092
2016-05-09T09:54:10.646Z,1108
2016-05-09T09:55:10.837Z,1108
2016-05-09T09:56:10.870Z,1128
2016-05-09T09:57:10.733Z,1116
2016-05-09T09:58:10.922Z,1116
2016-05-09T09:59:10.956Z,1120
2016-05-09T10:00:10.974Z,1116
2016-05-09T10:01:10.868Z,1128
2016-05-09T10:02:11.043Z,1164
2016-05-09T10:03:11.077Z,1172
2016-05-09T10:04:10.939Z,1164
2016-05-09T10:05:11.130Z,1156
2016-05-09T10:06:11.163Z,1172
2016-05-09T10:07:11.212Z,1172
2016-05-09T10:08:11.215Z,1180
2016-05-09T10:09:11.108Z,1208
2016-05-09T10:10:11.142Z,1216
2016-05-09T10:11:11.316Z,1216
2016-05-09T10:12:11.351Z,1232
2016-05-09T10:13:11.385Z,1228
2016-05-09T10:14:11.263Z,1256
2016-05-09T10:15:11.296Z,1248
2016-05-09T10:16:11.330Z,1268
2016-05-09T10:17:11.505Z,1248
2016-05-09T10:18:11.539Z,1252
2016-05-09T10:19:11.588Z,1260
2016-05-09T10:20:11.607Z,1280
2016-05-09T10:21:11.484Z,1300
2016-05-09T10:22:11.659Z,1316
2016-05-09T10:23:11.709Z,1332
2016-05-09T10:24:11.586Z,1352
2016-05-09T10:25:11.761Z,1396
2016-05-09T10:26:11.795Z,1388
2016-05-09T10:27:11.828Z,1380
2016-05-09T10:28:11.862Z,1360
2016-05-09T10:29:11.756Z,1356
2016-05-09T10:30:11.947Z,1384
2016-05-09T10:31:11.949Z,1404
2016-05-09T10:32:11.827Z,1400
2016-05-09T10:33:11.860Z,1428
2016-05-09T10:34:12.051Z,1396
2016-05-09T10:35:12.085Z,1460
2016-05-09T10:36:11.947Z,1476
2016-05-09T10:37:12.152Z,1484
2016-05-09T10:38:12.171Z,1520
2016-05-09T10:39:12.048Z,1612
2016-05-09T10:40:12.066Z,1528
2016-05-09T10:41:12.272Z,1524
2016-05-09T10:42:12.150Z,1520
2016-05-09T10:43:12.169Z,1560
2016-05-09T10:44:12.124Z,1544
2016-05-09T10:45:12.393Z,1548
2016-05-09T10:46:12.426Z,1548
2016-05-09T10:47:12.492Z,1588
2016-05-09T10:48:12.338Z,1596
2016-05-09T10:49:12.529Z,1600
2016-05-09T10:50:12.562Z,1636
2016-05-09T10:51:12.440Z,1608
2016-05-09T10:52:12.458Z,1036
2016-05-09T10:53:12.648Z,1784
2016-05-09T10:54:12.526Z,1776
2016-05-09T10:55:12.732Z,1768
2016-05-09T10:56:12.751Z,1796
2016-05-09T10:57:12.800Z,1720
2016-05-09T10:58:12.818Z,1692
2016-05-09T10:59:13.399Z,1820
2016-05-09T11:00:12.902Z,1808
2016-05-09T11:01:12.936Z,1724
2016-05-09T11:02:12.797Z,1756
2016-05-09T11:03:12.831Z,1716
2016-05-09T11:04:13.022Z,1764
2016-05-09T11:05:13.040Z,1784
2016-05-09T11:06:12.933Z,1836
2016-05-09T11:07:13.108Z,1932
2016-05-09T11:08:13.002Z,1892
2016-05-09T11:09:13.176Z,1836
2016-05-09T11:10:13.304Z,1876
2016-05-09T11:11:13.102Z,1992
2016-05-09T11:12:13.277Z,1136
2016-05-09T11:13:13.313Z,2292
2016-05-09T11:14:14.877Z,1972
2016-05-09T11:15:13.224Z,1872
2016-05-09T11:16:13.257Z,1308
2016-05-09T11:17:13.447Z,1936
2016-05-09T11:18:13.496Z,1944
2016-05-09T11:19:13.515Z,1876
2016-05-09T11:20:13.549Z,1904
2016-05-09T11:21:13.270Z,1916
2016-05-09T11:22:13.461Z,1920
2016-05-09T11:23:13.651Z,1936
2016-05-09T11:24:13.529Z,1952
2016-05-09T11:25:13.579Z,1996
2016-05-09T11:26:13.597Z,1932
2016-05-09T11:27:13.787Z,1900
2016-05-09T11:28:13.821Z,1912
2016-05-09T11:29:14.120Z,1924
2016-05-09T11:30:13.888Z,1940
2016-05-09T11:31:13.907Z,1952
2016-05-09T11:32:13.816Z,1980
2016-05-09T11:33:13.991Z,1976
2016-05-09T11:34:14.008Z,1968
2016-05-09T11:35:14.042Z,1976
2016-05-09T11:36:14.092Z,1988
2016-05-09T11:37:13.970Z,1988
2016-05-09T11:38:14.005Z,2008
2016-05-09T11:39:14.194Z,2008
2016-05-09T11:40:14.228Z,2000
2016-05-09T11:41:14.106Z,2020
2016-05-09T11:42:14.296Z,2012
2016-05-09T11:43:14.330Z,2028
2016-05-09T11:44:14.599Z,2028
2016-05-09T11:45:14.241Z,2044
2016-05-09T11:46:14.416Z,2064
2016-05-09T11:47:14.465Z,2076
2016-05-09T11:48:14.500Z,2096
2016-05-09T11:49:14.534Z,2100
2016-05-09T11:50:14.239Z,2100
2016-05-09T11:51:14.617Z,2100
2016-05-09T11:52:14.463Z,2120
2016-05-09T11:53:14.670Z,2124
2016-05-09T11:54:14.548Z,2140
2016-05-09T11:55:14.737Z,2120
2016-05-09T11:56:14.598Z,2120
2016-05-09T11:57:14.805Z,2136
2016-05-09T11:58:14.699Z,2164
2016-05-09T11:59:15.342Z,2196
2016-05-09T12:00:14.750Z,2200
2016-05-09T12:01:14.941Z,2180
2016-05-09T12:02:14.975Z,2192
2016-05-09T12:03:15.009Z,2232
2016-05-09T12:04:15.043Z,2260
2016-05-09T12:05:14.920Z,2344
2016-05-09T12:06:15.110Z,2300
2016-05-09T12:07:14.972Z,2240
2016-05-09T12:08:15.023Z,2208
2016-05-09T12:09:15.213Z,2220
2016-05-09T12:10:15.246Z,2228
2016-05-09T12:11:15.280Z,2220
2016-05-09T12:12:15.313Z,2232
2016-05-09T12:13:15.192Z,2248
2016-05-09T12:14:15.585Z,2248
2016-05-09T12:15:15.416Z,2244
2016-05-09T12:16:15.465Z,2260
2016-05-09T12:17:15.484Z,2280
2016-05-09T12:18:15.533Z,2260
2016-05-09T12:19:15.568Z,2244
2016-05-09T12:20:15.445Z,2256
2016-05-09T12:21:15.635Z,2260
2016-05-09T12:22:15.654Z,2276
2016-05-09T12:23:15.547Z,2308
2016-05-09T12:24:15.737Z,2340
2016-05-09T12:25:15.770Z,2344
2016-05-09T12:26:15.804Z,2344
2016-05-09T12:27:15.839Z,2368
2016-05-09T12:28:15.560Z,2396
2016-05-09T12:29:16.204Z,2456
2016-05-09T12:30:15.628Z,972
2016-05-09T12:31:15.975Z,1664
2016-05-09T12:32:16.009Z,2548
2016-05-09T12:33:16.059Z,1056
2016-05-09T12:34:16.092Z,2536
2016-05-09T12:35:16.126Z,1176
2016-05-09T12:36:16.160Z,2508
2016-05-09T12:37:16.038Z,3268
2016-05-09T12:38:15.916Z,3432
2016-05-09T12:39:16.121Z,2780
2016-05-09T12:40:16.155Z,2492
2016-05-09T12:41:16.330Z,2488
2016-05-09T12:42:16.364Z,2668
2016-05-09T12:43:16.397Z,2512
2016-05-09T12:44:16.634Z,2388
2016-05-09T12:45:16.466Z,2360
2016-05-09T12:46:16.500Z,2372
2016-05-09T12:47:16.549Z,2360
2016-05-09T12:48:16.568Z,2352
2016-05-09T12:49:19.429Z,2336
2016-05-09T12:50:16.339Z,2320
2016-05-09T12:51:16.685Z,2308
2016-05-09T12:52:16.563Z,2316
2016-05-09T12:53:16.752Z,2312
2016-05-09T12:54:16.833Z,2308
2016-05-09T12:55:16.821Z,2308
2016-05-09T12:56:16.558Z,2308
2016-05-09T12:57:16.904Z,2336
2016-05-09T12:58:16.782Z,2344
2016-05-09T12:59:17.143Z,2404
2016-05-09T13:00:17.006Z,904
2016-05-09T13:01:17.024Z,1160
2016-05-09T13:02:17.074Z,1820
2016-05-09T13:03:17.108Z,2424
2016-05-09T13:04:17.423Z,2396
2016-05-09T13:05:17.019Z,2404
2016-05-09T13:06:17.303Z,2408
2016-05-09T13:07:17.259Z,2412
2016-05-09T13:08:17.278Z,2436
2016-05-09T13:09:17.170Z,2512
2016-05-09T13:10:17.361Z,2624
2016-05-09T13:11:17.394Z,2596
2016-05-09T13:12:17.428Z,2504
2016-05-09T13:13:17.478Z,2472
2016-05-09T13:14:17.700Z,2468
2016-05-09T13:15:17.375Z,2508
2016-05-09T13:16:17.580Z,2536
2016-05-09T13:17:17.599Z,2652
2016-05-09T13:18:17.476Z,2636
2016-05-09T13:19:17.667Z,2572
2016-05-09T13:20:17.700Z,2624
2016-05-09T13:21:17.594Z,2844
2016-05-09T13:22:17.784Z,2876
2016-05-09T13:23:17.677Z,2780
2016-05-09T13:24:17.679Z,2688
2016-05-09T13:25:17.886Z,2696
2016-05-09T13:26:17.763Z,2744
2016-05-09T13:27:17.798Z,2752
2016-05-09T13:28:17.987Z,2844
2016-05-09T13:29:17.896Z,2860
2016-05-09T13:30:18.071Z,2848
2016-05-09T13:31:17.934Z,2816
2016-05-09T13:32:17.982Z,2792
2016-05-09T13:33:18.173Z,2780
2016-05-09T13:34:18.206Z,2796
2016-05-09T13:35:18.241Z,2820
2016-05-09T13:36:31.665Z,2908
2016-05-09T13:37:18.309Z,2996
2016-05-09T13:38:18.342Z,3000
2016-05-09T13:39:18.376Z,2992
2016-05-09T13:40:18.425Z,2964
2016-05-09T13:41:18.460Z,3072
2016-05-09T13:42:18.322Z,3108
2016-05-09T13:43:18.528Z,3188
2016-05-09T13:44:20.421Z,3236
2016-05-09T13:45:18.596Z,3240
2016-05-09T13:46:18.474Z,3360
2016-05-09T13:47:18.663Z,3392
2016-05-09T13:48:18.697Z,3452
2016-05-09T13:49:18.731Z,3544
2016-05-09T13:50:18.765Z,4024
2016-05-09T13:51:18.799Z,4072
2016-05-09T13:52:18.865Z,3804
2016-05-09T13:53:18.883Z,3592